Time;durP1;ratioP1;P1;durP2;ratioP2;P2;SDS_P1;SDS_P2;PMS_P1;PMS_P2;Temp;Humidity;BMP_temperature;BMP_pressure;BME280_temperature;BME280_humidity;BME280_pressure;Samples;Min_cycle;Max_cycle;Signal;HPM_P1;HPM_P2
2023/06/02 00:01:32;;;;;;;7.43;6.05;;;;;;;16.07;51.28;95575.69;6281199;22;20672;-80
2023/06/02 00:03:59;;;;;;;6.88;5.95;;;;;;;16.02;51.57;95580.66;6282042;22;20557;-78
2023/06/02 00:06:26;;;;;;;9.30;6.70;;;;;;;16.05;51.94;95582.91;6255193;22;20653;-79
2023/06/02 00:08:52;;;;;;;10.40;6.43;;;;;;;15.98;52.06;95576.75;6281023;22;20180;-78
2023/06/02 00:11:18;;;;;;;9.20;6.55;;;;;;;15.94;52.33;95572.88;6255132;22;20198;-79
2023/06/02 00:13:44;;;;;;;8.45;6.60;;;;;;;15.88;52.50;95572.78;6281255;22;20180;-79
2023/06/02 00:16:10;;;;;;;9.75;6.50;;;;;;;15.86;52.75;95575.59;6254767;22;20618;-79
2023/06/02 00:18:37;;;;;;;11.82;6.90;;;;;;;15.77;52.95;95568.81;6254956;22;20148;-79
2023/06/02 00:21:09;;;;;;;10.70;7.25;;;;;;;15.75;53.27;95571.63;6281017;22;20213;-78
2023/06/02 00:23:35;;;;;;;9.00;7.00;;;;;;;15.71;53.20;95567.72;6281321;22;20624;-78
2023/06/02 00:26:01;;;;;;;9.70;7.32;;;;;;;15.67;53.35;95573.50;6280090;22;20172;-80
2023/06/02 00:28:27;;;;;;;9.43;6.90;;;;;;;15.63;53.45;95574.81;6254849;22;20175;-79
2023/06/02 00:30:53;;;;;;;10.05;6.50;;;;;;;15.64;53.39;95573.84;6255045;22;20163;-78
2023/06/02 00:33:18;;;;;;;10.40;7.20;;;;;;;15.59;53.22;95575.16;6280198;22;20249;-79
2023/06/02 00:35:44;;;;;;;7.95;6.22;;;;;;;15.54;52.67;95571.44;6254663;22;20219;-79
2023/06/02 00:38:09;;;;;;;9.45;6.57;;;;;;;15.55;52.59;95573.09;6280151;22;20148;-78
2023/06/02 00:40:35;;;;;;;8.63;6.50;;;;;;;15.53;52.39;95572.44;6254471;22;20152;-78
2023/06/02 00:43:01;;;;;;;10.25;6.43;;;;;;;15.48;52.32;95572.97;6254724;22;20172;-79
2023/06/02 00:45:27;;;;;;;7.93;5.85;;;;;;;15.46;52.42;95569.72;6280529;22;20166;-79
2023/06/02 00:47:52;;;;;;;10.05;5.95;;;;;;;15.47;52.21;95581.00;6277795;22;20182;-79
2023/06/02 00:50:17;;;;;;;9.10;6.28;;;;;;;15.38;52.27;95577.66;6280632;22;20249;-79
2023/06/02 00:52:45;;;;;;;9.38;6.70;;;;;;;15.36;52.52;95579.59;6280515;22;20172;-78
2023/06/02 00:55:10;;;;;;;8.85;6.75;;;;;;;15.29;53.33;95573.47;6280456;22;20179;-80
2023/06/02 00:57:40;;;;;;;6.65;5.68;;;;;;;15.28;53.13;95571.81;6279865;22;20171;-80
2023/06/02 01:00:06;;;;;;;8.52;6.60;;;;;;;15.23;53.13;95584.63;6281270;22;20152;-78
2023/06/02 01:02:32;;;;;;;8.32;6.50;;;;;;;15.18;53.25;95576.47;6254648;22;20184;-80
2023/06/02 01:05:00;;;;;;;12.38;6.50;;;;;;;15.12;53.39;95577.19;6280094;22;20634;-79
2023/06/02 01:07:27;;;;;;;9.70;6.38;;;;;;;15.09;54.09;95578.34;6253736;22;20179;-80
2023/06/02 01:09:58;;;;;;;8.27;6.45;;;;;;;15.03;54.20;95573.81;6254798;22;20186;-79
2023/06/02 01:12:24;;;;;;;9.02;6.35;;;;;;;14.97;55.14;95569.28;6254645;22;20176;-80
2023/06/02 01:14:49;;;;;;;8.70;6.68;;;;;;;14.94;54.86;95572.25;6282063;22;20695;-80
2023/06/02 01:17:17;;;;;;;8.05;6.15;;;;;;;14.94;54.45;95567.84;6282124;22;20223;-80
2023/06/02 01:19:43;;;;;;;8.23;6.47;;;;;;;14.83;54.42;95568.22;6256566;22;20259;-79
2023/06/02 01:22:10;;;;;;;8.20;6.53;;;;;;;14.79;54.46;95560.91;6282859;22;20620;-79
2023/06/02 01:24:38;;;;;;;9.65;6.55;;;;;;;14.76;54.83;95572.53;6282461;22;20148;-80
2023/06/02 01:27:12;;;;;;;6.78;5.85;;;;;;;14.70;54.72;95571.41;6255043;22;20702;-80
2023/06/02 01:29:38;;;;;;;10.10;6.13;;;;;;;14.64;54.85;95569.47;6256270;22;20163;-80
2023/06/02 01:32:09;;;;;;;7.15;5.82;;;;;;;14.60;55.12;95570.00;6280579;22;20257;-80
2023/06/02 01:34:41;;;;;;;8.27;7.25;;;;;;;14.59;54.86;95571.81;6254947;22;20152;-80
2023/06/02 01:37:07;;;;;;;10.13;6.47;;;;;;;14.54;55.12;95568.88;6254240;22;20136;-79
2023/06/02 01:39:33;;;;;;;10.68;7.22;;;;;;;14.48;55.13;95576.59;6254516;22;20313;-79
2023/06/02 01:42:01;;;;;;;8.43;6.13;;;;;;;14.51;54.98;95566.63;6280224;22;20196;-80
2023/06/02 01:44:26;;;;;;;10.43;6.13;;;;;;;14.47;55.25;95562.72;6280375;22;20168;-79
2023/06/02 01:46:52;;;;;;;8.90;5.93;;;;;;;14.43;55.18;95564.00;6279481;22;20535;-77
2023/06/02 01:49:17;;;;;;;7.88;5.82;;;;;;;14.40;55.13;95557.34;6253521;22;20247;-78
2023/06/02 01:51:43;;;;;;;9.27;6.65;;;;;;;14.39;55.08;95566.13;6279809;22;20240;-78
2023/06/02 01:54:08;;;;;;;9.52;6.38;;;;;;;14.35;55.16;95559.63;6279742;22;20152;-80
2023/06/02 01:56:34;;;;;;;8.77;6.47;;;;;;;14.24;55.06;95554.81;6278726;22;20171;-80
2023/06/02 01:59:00;;;;;;;8.43;6.10;;;;;;;14.30;55.08;95561.94;6254747;22;20160;-79
2023/06/02 02:01:27;;;;;;;7.50;6.33;;;;;;;14.21;55.70;95565.56;6254257;22;20164;-79
2023/06/02 02:03:53;;;;;;;6.65;5.95;;;;;;;14.05;56.09;95557.81;6254268;22;20255;-80
2023/06/02 02:06:24;;;;;;;9.15;6.55;;;;;;;14.17;55.41;95569.50;6306568;22;20223;-80
2023/06/02 02:08:50;;;;;;;10.70;6.28;;;;;;;14.11;55.69;95562.34;6280370;22;20247;-80
2023/06/02 02:11:15;;;;;;;8.97;6.70;;;;;;;14.05;55.86;95563.84;6279326;22;20164;-79
2023/06/02 02:13:40;;;;;;;10.97;7.10;;;;;;;13.97;56.43;95565.66;6254306;22;20186;-80
2023/06/02 02:16:06;;;;;;;9.13;7.00;;;;;;;13.95;56.33;95565.81;6253823;22;20166;-80
2023/06/02 02:18:31;;;;;;;7.65;6.22;;;;;;;14.00;55.93;95573.16;6279996;22;20209;-80
2023/06/02 02:20:57;;;;;;;8.82;6.50;;;;;;;13.91;56.68;95561.94;6279252;22;20621;-80
2023/06/02 02:23:22;;;;;;;11.10;6.97;;;;;;;13.93;56.61;95566.97;6279674;22;20172;-79
2023/06/02 02:25:47;;;;;;;10.87;6.43;;;;;;;13.88;56.67;95562.28;6279351;22;20210;-79
2023/06/02 02:28:12;;;;;;;9.77;6.33;;;;;;;13.83;56.84;95557.53;6253810;22;20187;-80
2023/06/02 02:30:38;;;;;;;7.73;6.10;;;;;;;13.82;56.58;95568.97;6253883;22;20488;-78
2023/06/02 02:33:03;;;;;;;8.90;6.83;;;;;;;13.78;57.18;95567.69;6254516;22;20184;-80
2023/06/02 02:35:28;;;;;;;9.30;6.50;;;;;;;13.67;57.73;95572.41;6253780;22;20202;-79
2023/06/02 02:37:54;;;;;;;9.50;7.33;;;;;;;13.69;57.63;95567.84;6279115;22;20147;-80
2023/06/02 02:40:19;;;;;;;9.73;7.33;;;;;;;13.63;58.14;95571.13;6279659;22;20164;-80
2023/06/02 02:42:44;;;;;;;8.90;7.13;;;;;;;13.65;58.06;95571.78;6279804;22;20168;-79
2023/06/02 02:45:10;;;;;;;8.20;6.10;;;;;;;13.61;58.20;95568.69;6279921;22;20144;-80
2023/06/02 02:47:35;;;;;;;10.07;6.63;;;;;;;13.49;58.91;95572.59;6277875;22;20178;-79
2023/06/02 02:50:01;;;;;;;9.60;7.10;;;;;;;13.57;58.45;95576.00;6252669;22;20686;-79
2023/06/02 02:52:27;;;;;;;9.27;7.07;;;;;;;13.51;58.48;95571.44;6279324;22;20183;-80
2023/06/02 02:54:52;;;;;;;10.30;6.57;;;;;;;13.55;58.53;95572.75;6306352;22;20148;-79
2023/06/02 02:57:17;;;;;;;8.93;6.67;;;;;;;13.48;59.21;95570.97;6278536;22;20205;-80
2023/06/02 02:59:43;;;;;;;10.63;7.07;;;;;;;13.36;59.78;95577.53;6253600;22;20163;-79
2023/06/02 03:02:09;;;;;;;9.73;7.13;;;;;;;13.32;59.91;95575.22;6253436;22;20187;-80
2023/06/02 03:04:34;;;;;;;12.23;6.77;;;;;;;13.27;59.88;95569.69;6253892;22;20778;-80
2023/06/02 03:07:01;;;;;;;17.87;8.33;;;;;;;13.23;60.28;95570.97;6252480;22;20180;-79
2023/06/02 03:09:27;;;;;;;9.23;7.87;;;;;;;13.19;60.61;95572.28;6279494;22;20148;-80
2023/06/02 03:11:52;;;;;;;9.80;6.37;;;;;;;13.07;61.27;95575.34;6278805;22;20180;-80
2023/06/02 03:14:18;;;;;;;11.23;7.00;;;;;;;12.99;61.86;95574.38;6253057;22;20628;-80
2023/06/02 03:16:44;;;;;;;10.50;7.90;;;;;;;12.97;62.31;95580.72;6252708;22;20604;-76
2023/06/02 03:19:15;;;;;;;8.97;6.90;;;;;;;13.06;61.72;95582.34;6253767;22;20643;-80
2023/06/02 03:21:44;;;;;;;11.47;8.40;;;;;;;12.98;62.23;95577.94;6279871;22;20190;-80
2023/06/02 03:24:15;;;;;;;9.13;6.77;;;;;;;12.94;62.81;95583.66;6280119;22;20155;-79
2023/06/02 03:26:41;;;;;;;10.83;7.67;;;;;;;12.93;63.11;95580.22;6252992;22;20140;-79
2023/06/02 03:29:10;;;;;;;9.30;7.90;;;;;;;12.87;63.41;95580.06;6278700;22;20218;-80
2023/06/02 03:31:35;;;;;;;11.97;7.63;;;;;;;12.90;63.11;95585.78;6253088;22;20148;-80
2023/06/02 03:34:01;;;;;;;9.57;8.20;;;;;;;12.90;63.37;95585.78;6279392;22;20304;-79
2023/06/02 03:36:27;;;;;;;10.60;8.67;;;;;;;12.84;63.81;95583.00;6278003;22;20152;-80
2023/06/02 03:38:52;;;;;;;11.00;7.93;;;;;;;12.89;64.28;95586.72;6253351;22;20238;-79
2023/06/02 03:41:17;;;;;;;13.13;8.27;;;;;;;12.89;64.14;95580.69;6253239;22;20159;-79
2023/06/02 03:43:43;;;;;;;10.07;8.13;;;;;;;12.77;65.22;95583.63;6278721;22;20502;-80
2023/06/02 03:46:08;;;;;;;12.27;8.43;;;;;;;12.86;65.18;95584.44;6277992;22;20148;-79
2023/06/02 03:48:33;;;;;;;10.70;8.40;;;;;;;12.90;65.31;95582.34;6251623;22;20577;-79
2023/06/02 03:50:59;;;;;;;10.77;7.97;;;;;;;12.88;65.51;95587.69;6278972;22;20158;-80
2023/06/02 03:53:24;;;;;;;12.47;7.80;;;;;;;13.36;64.57;95587.94;6278957;22;20625;-77
2023/06/02 03:55:50;;;;;;;11.67;8.30;;;;;;;14.08;62.14;95592.22;6253080;22;20160;-78
2023/06/02 03:58:15;;;;;;;9.17;7.97;;;;;;;14.70;59.45;95583.66;6278595;22;20155;-78
2023/06/02 04:00:41;;;;;;;11.07;7.63;;;;;;;15.36;57.04;95587.44;6252988;22;20160;-77
2023/06/02 04:03:09;;;;;;;10.70;7.07;;;;;;;16.29;53.80;95588.88;6278577;22;20183;-78
2023/06/02 04:05:34;;;;;;;10.40;7.47;;;;;;;16.60;52.41;95586.84;6279832;22;20593;-79
2023/06/02 04:08:00;;;;;;;9.23;7.15;;;;;;;17.24;50.30;95594.03;6278613;22;20172;-79
2023/06/02 04:10:26;;;;;;;9.82;7.60;;;;;;;17.74;48.67;95590.41;6253551;22;20577;-79
2023/06/02 04:12:51;;;;;;;9.38;7.28;;;;;;;18.14;47.61;95593.34;6252776;22;20180;-80
2023/06/02 04:15:16;;;;;;;9.00;7.47;;;;;;;18.08;47.62;95594.91;6253688;22;20155;-79
2023/06/02 04:17:41;;;;;;;8.98;6.78;;;;;;;18.86;46.04;95587.63;6305413;22;20167;-80
2023/06/02 04:20:07;;;;;;;9.43;7.57;;;;;;;18.71;45.83;95600.09;6253148;22;20207;-79
2023/06/02 04:22:34;;;;;;;12.18;7.35;;;;;;;18.30;46.31;95598.28;6253211;22;20266;-78
2023/06/02 04:24:59;;;;;;;11.00;7.47;;;;;;;18.93;45.07;95595.53;6306047;22;20152;-79
2023/06/02 04:27:24;;;;;;;8.40;7.38;;;;;;;19.41;44.10;95598.88;6252433;22;20179;-79
2023/06/02 04:29:50;;;;;;;10.07;7.47;;;;;;;19.60;44.26;95597.28;6253068;22;20152;-79
2023/06/02 04:32:15;;;;;;;9.02;7.38;;;;;;;19.98;43.13;95601.94;6278722;22;20172;-79
2023/06/02 04:34:41;;;;;;;13.65;7.57;;;;;;;20.41;41.87;95598.81;6253043;22;20156;-78
2023/06/02 04:37:07;;;;;;;9.93;7.90;;;;;;;20.89;40.81;95605.38;6252796;22;20152;-79
2023/06/02 04:39:34;;;;;;;10.75;7.40;;;;;;;21.64;39.08;95608.19;6253464;22;20156;-79
2023/06/02 04:42:00;;;;;;;8.80;7.15;;;;;;;21.38;39.40;95618.94;6254542;22;20172;-79
2023/06/02 04:44:25;;;;;;;9.68;7.57;;;;;;;21.52;38.85;95617.84;6255160;22;20159;-79
2023/06/02 04:46:51;;;;;;;9.23;6.97;;;;;;;21.78;38.85;95622.91;6279393;22;20474;-79
2023/06/02 04:49:16;;;;;;;9.20;7.95;;;;;;;22.12;37.87;95620.84;6252767;22;20163;-80
2023/06/02 04:51:41;;;;;;;7.82;6.95;;;;;;;22.25;37.85;95622.53;6254642;22;20249;-79
2023/06/02 04:54:07;;;;;;;8.70;7.80;;;;;;;21.99;38.24;95615.63;6254710;22;20185;-79
2023/06/02 04:56:32;;;;;;;10.23;8.13;;;;;;;22.85;36.57;95614.81;6279789;22;20206;-76
2023/06/02 04:58:57;;;;;;;9.07;6.80;;;;;;;23.14;35.73;95616.66;6254765;22;20187;-78
2023/06/02 05:01:23;;;;;;;9.25;7.35;;;;;;;23.48;36.05;95624.94;6255167;22;20155;-79
2023/06/02 05:03:48;;;;;;;10.32;7.63;;;;;;;22.85;37.00;95626.19;6280539;22;20179;-78
2023/06/02 05:06:13;;;;;;;9.07;7.88;;;;;;;23.46;35.36;95621.72;6254493;22;20167;-78
2023/06/02 05:08:39;;;;;;;7.90;7.10;;;;;;;23.93;35.12;95620.00;6307468;22;20168;-79
2023/06/02 05:11:05;;;;;;;9.60;7.18;;;;;;;23.87;34.88;95620.94;6254738;22;20234;-76
2023/06/02 05:13:31;;;;;;;8.73;7.82;;;;;;;23.82;34.68;95625.31;6280509;22;20475;-79
2023/06/02 05:15:56;;;;;;;7.90;6.68;;;;;;;23.88;33.76;95627.84;6254085;22;20152;-77
2023/06/02 05:18:22;;;;;;;9.23;7.10;;;;;;;23.71;35.47;95627.72;6280560;22;20148;-80
2023/06/02 05:20:47;;;;;;;9.05;7.53;;;;;;;23.75;34.22;95622.75;6254324;22;20632;-79
2023/06/02 05:23:13;;;;;;;8.65;7.28;;;;;;;24.27;33.15;95621.06;6254429;22;20191;-79
2023/06/02 05:25:39;;;;;;;8.75;7.82;;;;;;;23.95;34.49;95625.09;6307759;22;20155;-79
2023/06/02 05:28:04;;;;;;;9.90;7.45;;;;;;;25.09;31.99;95623.66;6279674;22;20172;-77
2023/06/02 05:30:29;;;;;;;7.72;6.75;;;;;;;25.40;31.90;95630.31;6254802;22;20152;-79
2023/06/02 05:32:55;;;;;;;9.75;7.72;;;;;;;25.07;32.15;95622.25;6254275;22;20226;-77
2023/06/02 05:35:20;;;;;;;10.60;7.53;;;;;;;25.13;32.35;95634.59;6254369;22;20156;-77
2023/06/02 05:37:45;;;;;;;10.90;7.50;;;;;;;24.81;32.65;95634.19;6253428;22;20159;-78
2023/06/02 05:40:11;;;;;;;9.50;7.63;;;;;;;24.55;33.05;95635.50;6254949;22;20179;-79
2023/06/02 05:42:37;;;;;;;8.38;7.57;;;;;;;24.24;34.03;95640.09;6280249;22;20168;-79
2023/06/02 05:45:05;;;;;;;8.60;7.70;;;;;;;26.35;30.69;95649.19;6256074;22;20164;-79
2023/06/02 05:47:31;;;;;;;8.18;7.45;;;;;;;25.72;30.82;95643.16;6229426;22;20179;-78
2023/06/02 05:49:56;;;;;;;11.57;8.18;;;;;;;24.06;33.80;95648.16;6253041;22;20162;-79
2023/06/02 05:52:21;;;;;;;10.82;8.63;;;;;;;24.96;32.35;95639.00;6280055;22;20621;-79
2023/06/02 05:54:46;;;;;;;8.65;7.68;;;;;;;24.57;33.00;95639.56;6254570;22;20159;-79
2023/06/02 05:57:12;;;;;;;9.98;7.88;;;;;;;24.71;32.66;95636.63;6279672;22;20151;-80
2023/06/02 05:59:37;;;;;;;11.23;8.45;;;;;;;24.18;34.61;95638.38;6254551;22;20590;-79
2023/06/02 06:02:03;;;;;;;8.73;7.63;;;;;;;24.61;33.13;95633.75;6254357;22;20194;-79
2023/06/02 06:04:28;;;;;;;9.95;7.90;;;;;;;24.38;33.34;95630.06;6279518;22;20156;-79
2023/06/02 06:06:53;;;;;;;11.45;8.52;;;;;;;25.38;31.99;95628.94;6279450;22;20152;-79
2023/06/02 06:09:19;;;;;;;8.48;7.68;;;;;;;25.93;30.72;95636.31;6253864;22;20205;-79
2023/06/02 06:11:44;;;;;;;8.85;7.93;;;;;;;24.74;32.67;95628.22;6279836;22;20629;-78
2023/06/02 06:14:09;;;;;;;9.13;7.88;;;;;;;25.55;32.03;95632.44;6280180;22;20147;-79
2023/06/02 06:16:36;;;;;;;9.95;8.15;;;;;;;24.94;32.82;95633.94;6253358;22;20253;-79
2023/06/02 06:19:02;;;;;;;10.85;8.23;;;;;;;23.82;34.45;95630.59;6279122;22;20253;-78
2023/06/02 06:21:28;;;;;;;11.40;9.43;;;;;;;21.76;38.29;95637.38;6254223;22;20581;-78
2023/06/02 06:23:53;;;;;;;11.65;8.80;;;;;;;22.70;37.43;95644.25;6254342;22;20182;-79
2023/06/02 06:26:20;;;;;;;8.88;7.97;;;;;;;24.64;33.39;95639.41;6253224;22;20155;-80
2023/06/02 06:28:45;;;;;;;12.18;8.73;;;;;;;25.22;32.71;95640.34;6279465;22;20192;-79
2023/06/02 06:31:10;;;;;;;10.70;9.02;;;;;;;23.89;35.28;95636.63;6279738;22;20152;-78
2023/06/02 06:33:36;;;;;;;10.75;8.80;;;;;;;24.94;33.74;95644.56;6253891;22;20176;-79
2023/06/02 06:36:01;;;;;;;11.93;9.68;;;;;;;23.37;36.19;95642.44;6253394;22;20160;-79
2023/06/02 06:38:26;;;;;;;12.77;8.10;;;;;;;25.38;32.51;95651.03;6280103;22;20148;-79
2023/06/02 06:40:52;;;;;;;9.63;8.55;;;;;;;25.19;32.77;95648.78;6279864;22;20528;-80
2023/06/02 06:43:17;;;;;;;10.75;7.90;;;;;;;24.69;34.07;95652.78;6279747;22;20198;-79
2023/06/02 06:45:42;;;;;;;10.68;8.63;;;;;;;24.59;33.75;95649.94;6254053;22;20190;-78
2023/06/02 06:48:08;;;;;;;10.35;8.40;;;;;;;23.61;36.09;95647.84;6251330;22;20260;-78
2023/06/02 06:50:33;;;;;;;11.13;7.88;;;;;;;24.64;34.54;95655.34;6279797;22;20815;-79
2023/06/02 06:52:59;;;;;;;10.02;8.90;;;;;;;23.97;34.89;95658.31;6254055;22;20191;-79
2023/06/02 06:55:24;;;;;;;11.32;8.27;;;;;;;24.43;34.85;95654.09;6279781;22;20148;-78
2023/06/02 06:57:49;;;;;;;9.23;8.20;;;;;;;24.43;34.58;95658.59;6278791;22;20156;-79
2023/06/02 07:00:16;;;;;;;9.10;8.20;;;;;;;24.41;34.46;95656.19;6253755;22;20171;-79
2023/06/02 07:02:43;;;;;;;10.77;8.85;;;;;;;23.85;35.36;95662.75;6279096;22;20676;-79
2023/06/02 07:05:08;;;;;;;12.20;8.82;;;;;;;24.18;34.74;95670.19;6253370;22;20159;-78
2023/06/02 07:07:34;;;;;;;12.75;9.00;;;;;;;23.14;36.76;95668.81;6252703;22;20237;-78
2023/06/02 07:09:59;;;;;;;11.68;9.60;;;;;;;22.72;37.71;95667.88;6278863;22;20625;-78
2023/06/02 07:12:24;;;;;;;11.70;8.73;;;;;;;23.56;35.99;95671.53;6253469;22;20200;-79
2023/06/02 07:14:51;;;;;;;18.40;8.93;;;;;;;24.10;34.83;95669.72;6253278;22;20598;-79
2023/06/02 07:17:16;;;;;;;13.30;8.73;;;;;;;23.43;37.25;95670.69;6252815;22;20271;-79
2023/06/02 07:19:42;;;;;;;12.27;8.93;;;;;;;24.25;34.86;95667.44;6306515;22;20779;-79
2023/06/02 07:22:08;;;;;;;12.27;9.30;;;;;;;23.13;37.83;95683.09;6253389;22;20516;-78
2023/06/02 07:24:34;;;;;;;10.52;9.23;;;;;;;23.20;37.68;95677.72;6253645;22;20159;-79
2023/06/02 07:26:59;;;;;;;10.93;9.35;;;;;;;23.87;35.70;95671.31;6277816;22;20155;-78
2023/06/02 07:29:25;;;;;;;10.57;9.48;;;;;;;23.61;35.58;95671.72;6279218;22;20158;-78
2023/06/02 07:31:50;;;;;;;12.27;9.93;;;;;;;20.75;41.71;95668.94;6253557;22;20152;-79
2023/06/02 07:34:15;;;;;;;10.60;8.98;;;;;;;21.37;41.56;95662.22;6279118;22;20651;-79
2023/06/02 07:36:43;;;;;;;10.80;9.70;;;;;;;22.26;39.21;95674.41;6305410;22;20270;-79
2023/06/02 07:39:08;;;;;;;11.32;8.93;;;;;;;20.76;42.64;95678.50;6279687;22;20187;-79
2023/06/02 07:41:34;;;;;;;10.40;9.25;;;;;;;21.30;42.02;95669.41;6253125;22;20156;-79
2023/06/02 07:43:59;;;;;;;11.80;9.43;;;;;;;21.16;42.29;95669.41;6253387;22;20156;-78
2023/06/02 07:46:24;;;;;;;12.15;9.95;;;;;;;21.72;40.71;95668.69;6252743;22;20182;-79
2023/06/02 07:48:50;;;;;;;10.50;9.40;;;;;;;19.84;44.35;95668.84;6277029;22;20202;-78
2023/06/02 07:51:15;;;;;;;11.07;9.85;;;;;;;21.14;42.97;95662.72;6279239;22;20152;-78
2023/06/02 07:53:40;;;;;;;11.65;9.45;;;;;;;20.61;43.66;95671.66;6253527;22;20176;-78
2023/06/02 07:56:06;;;;;;;14.27;10.20;;;;;;;21.70;40.92;95670.75;6252213;22;20205;-78
2023/06/02 07:58:31;;;;;;;14.35;8.80;;;;;;;20.78;43.41;95673.84;6253431;22;20156;-79
2023/06/02 08:00:56;;;;;;;10.80;8.90;;;;;;;21.01;42.27;95666.22;6252798;22;20152;-78
2023/06/02 08:03:21;;;;;;;11.43;8.95;;;;;;;20.89;42.67;95663.44;6278495;22;20171;-77
2023/06/02 08:05:47;;;;;;;12.25;8.93;;;;;;;20.59;43.74;95668.41;6252974;22;20152;-77
2023/06/02 08:08:12;;;;;;;12.65;9.32;;;;;;;20.79;43.90;95667.53;6278041;22;20180;-77
2023/06/02 08:10:38;;;;;;;11.02;9.90;;;;;;;21.12;42.59;95665.59;6278647;22;20620;-78
2023/06/02 08:13:03;;;;;;;12.25;10.40;;;;;;;21.18;42.49;95669.19;6279035;22;20247;-78
2023/06/02 08:15:28;;;;;;;11.80;9.70;;;;;;;20.95;43.10;95669.72;6279125;22;20167;-79
2023/06/02 08:17:54;;;;;;;11.65;9.90;;;;;;;21.44;42.40;95666.44;6254144;22;20148;-77
2023/06/02 08:20:19;;;;;;;9.50;8.50;;;;;;;21.99;41.44;95668.50;6307880;22;20618;-78
2023/06/02 08:22:47;;;;;;;12.23;10.10;;;;;;;21.02;43.20;95667.84;6280447;22;20176;-76
2023/06/02 08:25:13;;;;;;;11.75;9.98;;;;;;;19.61;45.75;95667.38;6280113;22;20180;-78
2023/06/02 08:27:38;;;;;;;13.60;10.55;;;;;;;19.08;47.67;95655.88;6280100;22;20210;-78
2023/06/02 08:30:08;;;;;;;12.82;10.32;;;;;;;18.72;49.42;95661.41;6254753;22;20163;-78
2023/06/02 08:32:34;;;;;;;11.60;9.88;;;;;;;19.46;48.20;95653.56;6254609;22;20183;-79
2023/06/02 08:35:02;;;;;;;12.50;9.30;;;;;;;20.24;46.05;95659.13;6254626;22;20164;-77
2023/06/02 08:37:29;;;;;;;11.82;9.55;;;;;;;20.00;47.50;95657.91;6280709;22;20151;-78
2023/06/02 08:39:55;;;;;;;13.20;9.98;;;;;;;19.84;46.89;95660.94;6255057;22;20160;-77
2023/06/02 08:42:22;;;;;;;12.63;10.27;;;;;;;19.42;48.39;95660.25;6305845;22;20175;-78
2023/06/02 08:44:47;;;;;;;11.25;10.07;;;;;;;18.61;50.44;95654.88;6254371;22;20163;-78
2023/06/02 08:47:13;;;;;;;15.43;10.10;;;;;;;19.06;49.48;95655.28;6279243;22;20210;-78
2023/06/02 08:49:41;;;;;;;11.95;10.02;;;;;;;18.47;51.23;95661.88;6278394;22;20163;-78
2023/06/02 08:52:11;;;;;;;10.30;8.95;;;;;;;18.60;51.23;95655.88;6280556;22;20171;-78
2023/06/02 08:54:38;;;;;;;13.57;10.05;;;;;;;18.84;50.90;95647.53;6306315;22;20167;-79
2023/06/02 08:57:05;;;;;;;11.98;9.80;;;;;;;18.04;52.98;95655.94;6279775;22;20156;-78
2023/06/02 08:59:30;;;;;;;13.25;10.90;;;;;;;17.43;55.05;95660.84;6307786;22;20152;-79
2023/06/02 09:01:56;;;;;;;10.63;9.52;;;;;;;18.27;53.77;95666.19;6280379;22;20187;-78
2023/06/02 09:04:21;;;;;;;14.43;10.30;;;;;;;18.45;53.31;95661.25;6254763;22;20553;-79
2023/06/02 09:06:49;;;;;;;13.30;9.35;;;;;;;18.62;53.18;95665.19;6279655;22;20152;-78
2023/06/02 09:09:14;;;;;;;12.10;10.20;;;;;;;19.26;50.47;95664.06;6280101;22;20149;-79
2023/06/02 09:11:40;;;;;;;12.55;9.57;;;;;;;19.73;49.86;95660.53;6280401;22;20148;-77
2023/06/02 09:14:20;;;;;;;11.82;10.60;;;;;;;20.13;47.60;95664.97;6254631;22;20152;-78
2023/06/02 09:16:45;;;;;;;12.25;9.38;;;;;;;20.01;48.28;95662.16;6307180;22;20136;-78
2023/06/02 09:19:11;;;;;;;20.73;10.50;;;;;;;19.31;50.68;95655.56;6280894;22;20544;-79
2023/06/02 09:21:37;;;;;;;12.57;9.25;;;;;;;18.71;52.51;95671.13;6280156;22;20140;-79
2023/06/02 09:24:03;;;;;;;14.77;10.95;;;;;;;18.05;53.05;95666.25;6307083;22;20148;-79
2023/06/02 09:26:30;;;;;;;12.98;9.90;;;;;;;18.56;52.35;95665.97;6253555;22;20159;-78
2023/06/02 09:29:06;;;;;;;13.90;10.63;;;;;;;19.32;50.52;95665.88;6254390;22;20179;-77
2023/06/02 09:31:44;;;;;;;11.15;9.60;;;;;;;19.57;50.69;95660.91;6279801;22;20828;-79
2023/06/02 09:34:10;;;;;;;12.32;10.32;;;;;;;19.78;48.36;95657.28;6280328;22;20786;-78
2023/06/02 09:36:36;;;;;;;10.48;8.68;;;;;;;19.63;49.37;95667.22;6253016;22;20162;-77
2023/06/02 09:39:03;;;;;;;12.13;10.27;;;;;;;18.89;51.26;95673.22;6280408;22;20643;-78
2023/06/02 09:41:30;;;;;;;11.85;9.85;;;;;;;18.66;51.10;95663.03;6307493;22;20159;-78
2023/06/02 09:43:56;;;;;;;12.93;9.98;;;;;;;18.28;52.62;95662.56;6279316;22;20241;-78
2023/06/02 09:46:22;;;;;;;10.70;8.77;;;;;;;19.27;50.19;95657.78;6279020;22;20167;-78
2023/06/02 09:48:56;;;;;;;11.07;8.02;;;;;;;19.76;50.13;95657.47;6277876;22;20798;-77
2023/06/02 09:51:23;;;;;;;10.75;7.97;;;;;;;19.82;48.68;95658.50;6279588;22;20148;-78
2023/06/02 09:53:48;;;;;;;9.55;8.57;;;;;;;20.04;47.66;95667.81;6279571;22;20179;-78
2023/06/02 09:56:22;;;;;;;12.25;9.15;;;;;;;19.62;49.44;95655.88;6253902;22;20156;-81
2023/06/02 09:58:48;;;;;;;10.77;9.68;;;;;;;19.53;49.50;95665.75;6255217;22;20148;-78
2023/06/02 10:01:16;;;;;;;11.95;9.50;;;;;;;19.62;48.55;95652.41;6280792;22;20156;-80
2023/06/02 10:03:43;;;;;;;11.00;9.15;;;;;;;19.53;48.64;95660.47;6254721;22;20176;-80
2023/06/02 10:06:23;;;;;;;11.38;9.07;;;;;;;19.28;49.36;95661.22;6254153;22;20234;-79
2023/06/02 10:09:06;;;;;;;13.73;8.82;;;;;;;19.53;47.86;95668.38;6304370;22;20787;-79
2023/06/02 10:11:57;;;;;;;10.77;9.25;;;;;;;19.57;48.71;95666.19;6255002;22;20155;-78
2023/06/02 10:14:38;;;;;;;9.75;8.70;;;;;;;19.03;50.22;95666.22;6285735;22;20183;-79
2023/06/02 10:17:15;;;;;;;9.82;8.82;;;;;;;19.48;49.87;95664.72;6309175;22;20654;-83
2023/06/02 10:20:11;;;;;;;9.90;8.27;;;;;;;19.84;48.38;95653.84;6278537;22;20160;-81
2023/06/02 10:23:05;;;;;;;10.45;9.45;;;;;;;20.22;48.19;95655.84;6277302;22;20176;-83
2023/06/02 10:25:39;;;;;;;11.65;8.35;;;;;;;20.41;48.05;95665.56;6276637;22;20571;-79
2023/06/02 10:28:06;;;;;;;8.40;7.45;;;;;;;20.06;49.79;95663.19;6275247;22;20194;-80
2023/06/02 10:30:33;;;;;;;10.20;8.48;;;;;;;19.50;50.13;95658.22;6276800;22;20206;-80
2023/06/02 10:32:58;;;;;;;13.27;9.30;;;;;;;19.53;49.26;95663.13;6301317;22;20266;-80
2023/06/02 10:35:56;;;;;;;12.00;8.60;;;;;;;19.56;48.86;95661.94;6299702;22;20236;-78
2023/06/02 10:38:31;;;;;;;9.82;7.60;;;;;;;19.75;49.71;95655.06;6276403;22;20198;-79
2023/06/02 10:40:56;;;;;;;9.63;8.57;;;;;;;19.53;49.68;95655.22;6299722;22;20148;-79
2023/06/02 10:43:22;;;;;;;8.45;7.55;;;;;;;19.59;50.27;95655.44;6274933;22;20179;-81
2023/06/02 10:45:48;;;;;;;10.02;7.80;;;;;;;19.78;48.30;95657.28;6274915;22;20160;-80
2023/06/02 10:48:37;;;;;;;11.15;8.30;;;;;;;19.60;48.57;95649.97;6279618;22;20248;-84
2023/06/02 10:51:03;;;;;;;8.18;7.22;;;;;;;20.35;47.60;95655.84;6279968;22;20153;-84
2023/06/02 10:53:29;;;;;;;8.90;7.40;;;;;;;20.75;46.44;95653.13;6279495;22;20192;-84
2023/06/02 10:55:55;;;;;;;9.75;8.13;;;;;;;21.01;45.49;95649.56;6304970;22;20151;-84
2023/06/02 10:58:21;;;;;;;10.38;8.18;;;;;;;21.48;44.41;95640.44;6280181;22;20175;-84
2023/06/02 11:00:49;;;;;;;9.45;7.40;;;;;;;21.73;43.88;95648.38;6278871;22;20148;-84
2023/06/02 11:03:14;;;;;;;8.85;7.55;;;;;;;22.00;42.65;95649.00;6275634;22;20179;-83
2023/06/02 11:05:40;;;;;;;9.40;7.50;;;;;;;22.33;41.83;95649.53;6278656;22;20183;-83
2023/06/02 11:08:12;;;;;;;8.60;7.80;;;;;;;21.15;43.56;95646.66;6277333;22;20184;-83
2023/06/02 11:10:57;;;;;;;9.35;7.10;;;;;;;20.39;45.68;95654.41;6275935;22;20156;-81
2023/06/02 11:13:23;;;;;;;8.00;7.20;;;;;;;20.66;45.24;95647.25;6275354;22;20176;-80
2023/06/02 11:16:08;;;;;;;8.73;7.55;;;;;;;20.47;45.54;95651.56;6278188;22;20236;-82
2023/06/02 11:18:34;;;;;;;9.27;6.93;;;;;;;20.25;46.32;95652.81;6266040;22;20163;-83
2023/06/02 11:21:04;;;;;;;7.63;6.53;;;;;;;20.98;44.49;95642.09;6305897;22;20167;-82
2023/06/02 11:23:30;;;;;;;11.55;7.90;;;;;;;21.16;45.66;95648.28;6254331;22;20179;-81
2023/06/02 11:26:05;;;;;;;8.15;7.25;;;;;;;21.04;44.34;95654.44;6278808;22;20212;-81
2023/06/02 11:28:31;;;;;;;9.57;7.47;;;;;;;21.61;43.79;95655.38;6281951;22;20178;-80